Terminal Aerodrome Forecast
Issued by NWS

Home | Current Version | Previous Version | Text Only | Print | Product List | Glossary On
Versions: 1 2 3 4 5 6 7 8 9 10 11 12 13 14 15 16 17 18
000
FTUS46 KMFR 312346
TAFOTH
TAF
KOTH 312346Z 0100/0124 30009KT P6SM FEW035 BKN250
     FM010600 VRB02KT P6SM SCT007 OVC015
     FM010900 15003KT 4SM BR SCT003 OVC007
     FM011700 23005KT P6SM BKN015 OVC025
     FM012100 27010G16KT P6SM VCSH SCT020 BKN040 BKN060=

USA.gov is the U.S. government's official web portal to all federal, state and local government web resources and services.